sensor_id;sensor_type;location;lat;lon;timestamp;P1;durP1;ratioP1;P2;durP2;ratioP2
79124;SDS011;68527;39.470;-0.376;2023-12-20T00:01:50;7.40;;;4.60;;
79124;SDS011;68527;39.470;-0.376;2023-12-20T00:04:16;7.00;;;4.20;;
79124;SDS011;68527;39.470;-0.376;2023-12-20T00:06:44;7.00;;;4.20;;
79124;SDS011;68527;39.470;-0.376;2023-12-20T00:09:09;7.20;;;4.40;;
79124;SDS011;68527;39.470;-0.376;2023-12-20T00:11:35;6.00;;;3.90;;
79124;SDS011;68527;39.470;-0.376;2023-12-20T00:14:00;5.80;;;4.00;;
79124;SDS011;68527;39.470;-0.376;2023-12-20T00:16:28;6.40;;;4.20;;
79124;SDS011;68527;39.470;-0.376;2023-12-20T00:18:53;6.40;;;4.10;;
79124;SDS011;68527;39.470;-0.376;2023-12-20T00:21:18;8.50;;;4.30;;
79124;SDS011;68527;39.470;-0.376;2023-12-20T00:23:44;7.50;;;4.20;;
79124;SDS011;68527;39.470;-0.376;2023-12-20T00:26:09;5.20;;;3.60;;
79124;SDS011;68527;39.470;-0.376;2023-12-20T00:28:36;6.50;;;4.10;;
79124;SDS011;68527;39.470;-0.376;2023-12-20T00:31:02;7.00;;;4.30;;
79124;SDS011;68527;39.470;-0.376;2023-12-20T00:33:28;6.60;;;4.00;;
79124;SDS011;68527;39.470;-0.376;2023-12-20T00:35:53;7.00;;;4.20;;
79124;SDS011;68527;39.470;-0.376;2023-12-20T00:38:20;6.40;;;4.30;;
79124;SDS011;68527;39.470;-0.376;2023-12-20T00:40:46;6.20;;;4.10;;
79124;SDS011;68527;39.470;-0.376;2023-12-20T00:43:11;7.30;;;4.10;;
79124;SDS011;68527;39.470;-0.376;2023-12-20T00:45:37;6.00;;;4.10;;
79124;SDS011;68527;39.470;-0.376;2023-12-20T00:48:05;6.00;;;3.60;;
79124;SDS011;68527;39.470;-0.376;2023-12-20T00:50:31;8.00;;;4.30;;
79124;SDS011;68527;39.470;-0.376;2023-12-20T00:52:57;5.00;;;3.10;;
79124;SDS011;68527;39.470;-0.376;2023-12-20T00:55:22;6.40;;;4.60;;
79124;SDS011;68527;39.470;-0.376;2023-12-20T00:57:49;7.10;;;3.60;;
79124;SDS011;68527;39.470;-0.376;2023-12-20T01:00:15;6.80;;;3.70;;
79124;SDS011;68527;39.470;-0.376;2023-12-20T01:02:41;5.90;;;3.80;;
79124;SDS011;68527;39.470;-0.376;2023-12-20T01:07:35;6.40;;;3.40;;
79124;SDS011;68527;39.470;-0.376;2023-12-20T01:10:01;5.70;;;3.50;;
79124;SDS011;68527;39.470;-0.376;2023-12-20T01:12:26;6.20;;;3.90;;
79124;SDS011;68527;39.470;-0.376;2023-12-20T01:14:53;6.90;;;3.70;;
79124;SDS011;68527;39.470;-0.376;2023-12-20T01:17:20;4.80;;;3.60;;
79124;SDS011;68527;39.470;-0.376;2023-12-20T01:19:46;5.50;;;3.70;;
79124;SDS011;68527;39.470;-0.376;2023-12-20T01:22:11;5.80;;;3.40;;
79124;SDS011;68527;39.470;-0.376;2023-12-20T01:24:37;6.60;;;4.10;;
79124;SDS011;68527;39.470;-0.376;2023-12-20T01:27:05;5.60;;;4.00;;
79124;SDS011;68527;39.470;-0.376;2023-12-20T01:29:30;5.70;;;3.30;;
79124;SDS011;68527;39.470;-0.376;2023-12-20T01:31:56;5.40;;;3.50;;
79124;SDS011;68527;39.470;-0.376;2023-12-20T01:34:21;5.20;;;3.40;;
79124;SDS011;68527;39.470;-0.376;2023-12-20T01:36:49;5.80;;;3.70;;
79124;SDS011;68527;39.470;-0.376;2023-12-20T01:39:15;7.00;;;3.90;;
79124;SDS011;68527;39.470;-0.376;2023-12-20T01:41:40;5.20;;;3.30;;
79124;SDS011;68527;39.470;-0.376;2023-12-20T01:44:06;5.20;;;3.80;;
79124;SDS011;68527;39.470;-0.376;2023-12-20T01:46:31;5.70;;;3.70;;
79124;SDS011;68527;39.470;-0.376;2023-12-20T01:48:58;5.20;;;3.20;;
79124;SDS011;68527;39.470;-0.376;2023-12-20T01:51:24;4.80;;;3.40;;
79124;SDS011;68527;39.470;-0.376;2023-12-20T01:53:52;7.50;;;3.30;;
79124;SDS011;68527;39.470;-0.376;2023-12-20T01:56:21;5.90;;;3.70;;
79124;SDS011;68527;39.470;-0.376;2023-12-20T01:58:47;5.20;;;3.40;;
79124;SDS011;68527;39.470;-0.376;2023-12-20T02:01:13;5.10;;;3.60;;
79124;SDS011;68527;39.470;-0.376;2023-12-20T02:03:41;5.90;;;3.60;;
79124;SDS011;68527;39.470;-0.376;2023-12-20T02:06:09;6.80;;;3.50;;
79124;SDS011;68527;39.470;-0.376;2023-12-20T02:08:35;5.10;;;3.70;;
79124;SDS011;68527;39.470;-0.376;2023-12-20T02:11:01;5.10;;;3.40;;
79124;SDS011;68527;39.470;-0.376;2023-12-20T02:13:27;4.00;;;2.70;;
79124;SDS011;68527;39.470;-0.376;2023-12-20T02:18:22;4.00;;;2.90;;
79124;SDS011;68527;39.470;-0.376;2023-12-20T02:20:48;6.50;;;3.90;;
79124;SDS011;68527;39.470;-0.376;2023-12-20T02:23:15;5.80;;;2.80;;
79124;SDS011;68527;39.470;-0.376;2023-12-20T02:25:40;4.10;;;2.90;;
79124;SDS011;68527;39.470;-0.376;2023-12-20T02:28:06;4.90;;;3.50;;
79124;SDS011;68527;39.470;-0.376;2023-12-20T02:30:32;5.20;;;3.20;;
79124;SDS011;68527;39.470;-0.376;2023-12-20T02:33:00;4.70;;;2.90;;
79124;SDS011;68527;39.470;-0.376;2023-12-20T02:35:26;4.70;;;3.00;;
79124;SDS011;68527;39.470;-0.376;2023-12-20T02:37:52;5.00;;;3.40;;
79124;SDS011;68527;39.470;-0.376;2023-12-20T02:40:17;5.20;;;3.60;;
79124;SDS011;68527;39.470;-0.376;2023-12-20T02:42:44;5.00;;;3.00;;
79124;SDS011;68527;39.470;-0.376;2023-12-20T02:45:09;5.40;;;3.20;;
79124;SDS011;68527;39.470;-0.376;2023-12-20T02:47:35;4.80;;;3.00;;
79124;SDS011;68527;39.470;-0.376;2023-12-20T02:50:01;4.60;;;3.10;;
79124;SDS011;68527;39.470;-0.376;2023-12-20T02:52:29;4.40;;;3.00;;
79124;SDS011;68527;39.470;-0.376;2023-12-20T02:54:54;5.20;;;3.40;;
79124;SDS011;68527;39.470;-0.376;2023-12-20T02:57:20;5.10;;;3.10;;
79124;SDS011;68527;39.470;-0.376;2023-12-20T02:59:45;3.90;;;2.60;;
79124;SDS011;68527;39.470;-0.376;2023-12-20T03:02:13;3.80;;;2.50;;
79124;SDS011;68527;39.470;-0.376;2023-12-20T03:04:39;4.80;;;2.80;;
79124;SDS011;68527;39.470;-0.376;2023-12-20T03:07:04;4.90;;;2.90;;
79124;SDS011;68527;39.470;-0.376;2023-12-20T03:09:30;5.00;;;2.70;;
79124;SDS011;68527;39.470;-0.376;2023-12-20T03:11:57;5.90;;;2.70;;
79124;SDS011;68527;39.470;-0.376;2023-12-20T03:14:23;5.80;;;2.90;;
79124;SDS011;68527;39.470;-0.376;2023-12-20T03:16:49;5.90;;;2.70;;
79124;SDS011;68527;39.470;-0.376;2023-12-20T03:19:16;4.10;;;2.60;;
79124;SDS011;68527;39.470;-0.376;2023-12-20T03:21:44;3.80;;;2.70;;
79124;SDS011;68527;39.470;-0.376;2023-12-20T03:24:09;5.30;;;3.00;;
79124;SDS011;68527;39.470;-0.376;2023-12-20T03:26:35;4.20;;;2.80;;
79124;SDS011;68527;39.470;-0.376;2023-12-20T03:29:00;3.70;;;2.60;;
79124;SDS011;68527;39.470;-0.376;2023-12-20T03:31:28;3.40;;;2.20;;
79124;SDS011;68527;39.470;-0.376;2023-12-20T03:33:54;3.30;;;2.40;;
79124;SDS011;68527;39.470;-0.376;2023-12-20T03:36:19;4.20;;;2.70;;
79124;SDS011;68527;39.470;-0.376;2023-12-20T03:38:45;3.50;;;2.60;;
79124;SDS011;68527;39.470;-0.376;2023-12-20T03:41:13;4.90;;;2.90;;
79124;SDS011;68527;39.470;-0.376;2023-12-20T03:43:39;3.40;;;2.50;;
79124;SDS011;68527;39.470;-0.376;2023-12-20T03:46:04;5.80;;;2.90;;
79124;SDS011;68527;39.470;-0.376;2023-12-20T03:50:57;3.60;;;2.30;;
79124;SDS011;68527;39.470;-0.376;2023-12-20T03:53:23;4.10;;;2.80;;
79124;SDS011;68527;39.470;-0.376;2023-12-20T03:55:48;3.60;;;2.30;;
79124;SDS011;68527;39.470;-0.376;2023-12-20T03:58:14;3.70;;;2.80;;
79124;SDS011;68527;39.470;-0.376;2023-12-20T04:00:39;3.90;;;2.40;;
79124;SDS011;68527;39.470;-0.376;2023-12-20T04:03:06;4.00;;;2.70;;
79124;SDS011;68527;39.470;-0.376;2023-12-20T04:05:32;3.20;;;2.20;;
79124;SDS011;68527;39.470;-0.376;2023-12-20T04:07:58;4.00;;;2.60;;
79124;SDS011;68527;39.470;-0.376;2023-12-20T04:10:24;3.20;;;2.40;;
79124;SDS011;68527;39.470;-0.376;2023-12-20T04:12:50;3.60;;;2.20;;
79124;SDS011;68527;39.470;-0.376;2023-12-20T04:15:16;3.40;;;2.40;;
79124;SDS011;68527;39.470;-0.376;2023-12-20T04:17:41;3.50;;;2.10;;
79124;SDS011;68527;39.470;-0.376;2023-12-20T04:20:07;3.20;;;2.40;;
79124;SDS011;68527;39.470;-0.376;2023-12-20T04:22:35;3.40;;;2.30;;
79124;SDS011;68527;39.470;-0.376;2023-12-20T04:25:01;3.80;;;2.60;;
79124;SDS011;68527;39.470;-0.376;2023-12-20T04:27:27;4.30;;;2.40;;
79124;SDS011;68527;39.470;-0.376;2023-12-20T04:29:53;4.50;;;2.40;;
79124;SDS011;68527;39.470;-0.376;2023-12-20T04:32:20;3.20;;;2.00;;
79124;SDS011;68527;39.470;-0.376;2023-12-20T04:34:45;5.30;;;2.60;;
79124;SDS011;68527;39.470;-0.376;2023-12-20T04:37:11;3.60;;;2.20;;
79124;SDS011;68527;39.470;-0.376;2023-12-20T04:42:05;3.20;;;2.00;;
79124;SDS011;68527;39.470;-0.376;2023-12-20T04:44:30;3.40;;;2.50;;
79124;SDS011;68527;39.470;-0.376;2023-12-20T04:46:56;4.40;;;2.30;;
79124;SDS011;68527;39.470;-0.376;2023-12-20T04:51:50;2.80;;;1.80;;
79124;SDS011;68527;39.470;-0.376;2023-12-20T04:54:15;2.80;;;2.00;;
79124;SDS011;68527;39.470;-0.376;2023-12-20T04:56:41;3.10;;;2.30;;
79124;SDS011;68527;39.470;-0.376;2023-12-20T04:59:07;2.80;;;2.10;;
79124;SDS011;68527;39.470;-0.376;2023-12-20T05:01:34;3.10;;;2.20;;
79124;SDS011;68527;39.470;-0.376;2023-12-20T05:04:00;3.20;;;2.30;;
79124;SDS011;68527;39.470;-0.376;2023-12-20T05:06:25;3.20;;;2.00;;
79124;SDS011;68527;39.470;-0.376;2023-12-20T05:08:51;2.80;;;2.00;;
79124;SDS011;68527;39.470;-0.376;2023-12-20T05:11:16;3.80;;;2.10;;
79124;SDS011;68527;39.470;-0.376;2023-12-20T05:13:43;2.80;;;1.90;;
79124;SDS011;68527;39.470;-0.376;2023-12-20T05:16:09;2.90;;;2.10;;
79124;SDS011;68527;39.470;-0.376;2023-12-20T05:18:34;2.90;;;2.10;;
79124;SDS011;68527;39.470;-0.376;2023-12-20T05:21:00;2.50;;;2.20;;
79124;SDS011;68527;39.470;-0.376;2023-12-20T05:23:27;2.80;;;2.00;;
79124;SDS011;68527;39.470;-0.376;2023-12-20T05:25:53;4.00;;;2.60;;
79124;SDS011;68527;39.470;-0.376;2023-12-20T05:28:18;4.10;;;2.90;;
79124;SDS011;68527;39.470;-0.376;2023-12-20T05:30:44;3.30;;;2.10;;
79124;SDS011;68527;39.470;-0.376;2023-12-20T05:33:11;4.00;;;2.20;;
79124;SDS011;68527;39.470;-0.376;2023-12-20T05:35:37;2.80;;;1.90;;
79124;SDS011;68527;39.470;-0.376;2023-12-20T05:38:03;3.10;;;2.10;;
79124;SDS011;68527;39.470;-0.376;2023-12-20T05:40:28;2.90;;;2.20;;
79124;SDS011;68527;39.470;-0.376;2023-12-20T05:42:56;2.70;;;2.10;;
79124;SDS011;68527;39.470;-0.376;2023-12-20T05:45:22;3.20;;;2.00;;
79124;SDS011;68527;39.470;-0.376;2023-12-20T05:47:47;3.70;;;2.30;;
79124;SDS011;68527;39.470;-0.376;2023-12-20T05:50:13;3.60;;;2.20;;
79124;SDS011;68527;39.470;-0.376;2023-12-20T05:52:38;2.80;;;1.80;;
79124;SDS011;68527;39.470;-0.376;2023-12-20T05:55:05;3.90;;;1.90;;
79124;SDS011;68527;39.470;-0.376;2023-12-20T05:57:31;2.70;;;1.90;;
79124;SDS011;68527;39.470;-0.376;2023-12-20T05:59:57;2.60;;;1.70;;
79124;SDS011;68527;39.470;-0.376;2023-12-20T06:02:22;2.50;;;1.90;;
79124;SDS011;68527;39.470;-0.376;2023-12-20T06:04:49;2.80;;;1.90;;
79124;SDS011;68527;39.470;-0.376;2023-12-20T06:07:15;2.90;;;1.90;;
79124;SDS011;68527;39.470;-0.376;2023-12-20T06:09:41;3.80;;;2.10;;
79124;SDS011;68527;39.470;-0.376;2023-12-20T06:12:07;3.00;;;2.00;;
79124;SDS011;68527;39.470;-0.376;2023-12-20T06:14:37;2.40;;;1.90;;
79124;SDS011;68527;39.470;-0.376;2023-12-20T06:17:03;3.90;;;2.00;;
79124;SDS011;68527;39.470;-0.376;2023-12-20T06:19:28;3.40;;;1.80;;
79124;SDS011;68527;39.470;-0.376;2023-12-20T06:21:54;2.80;;;2.00;;
79124;SDS011;68527;39.470;-0.376;2023-12-20T06:24:19;3.30;;;2.00;;
79124;SDS011;68527;39.470;-0.376;2023-12-20T06:26:46;3.30;;;1.90;;
79124;SDS011;68527;39.470;-0.376;2023-12-20T06:29:12;3.30;;;1.80;;
79124;SDS011;68527;39.470;-0.376;2023-12-20T06:31:37;3.30;;;2.00;;
79124;SDS011;68527;39.470;-0.376;2023-12-20T06:34:03;4.30;;;1.80;;
79124;SDS011;68527;39.470;-0.376;2023-12-20T06:36:30;4.90;;;2.20;;
79124;SDS011;68527;39.470;-0.376;2023-12-20T06:38:55;5.90;;;2.60;;
79124;SDS011;68527;39.470;-0.376;2023-12-20T06:41:21;6.50;;;3.20;;
79124;SDS011;68527;39.470;-0.376;2023-12-20T06:43:49;6.20;;;2.80;;
79124;SDS011;68527;39.470;-0.376;2023-12-20T06:46:16;5.50;;;2.50;;
79124;SDS011;68527;39.470;-0.376;2023-12-20T06:48:42;5.60;;;2.20;;
79124;SDS011;68527;39.470;-0.376;2023-12-20T06:51:10;6.30;;;2.30;;
79124;SDS011;68527;39.470;-0.376;2023-12-20T06:53:38;5.20;;;2.40;;
79124;SDS011;68527;39.470;-0.376;2023-12-20T06:56:04;6.30;;;2.50;;
79124;SDS011;68527;39.470;-0.376;2023-12-20T06:58:30;5.10;;;2.40;;
79124;SDS011;68527;39.470;-0.376;2023-12-20T07:03:23;7.30;;;2.30;;
79124;SDS011;68527;39.470;-0.376;2023-12-20T07:05:49;4.90;;;2.50;;
79124;SDS011;68527;39.470;-0.376;2023-12-20T07:08:14;5.80;;;2.70;;
79124;SDS011;68527;39.470;-0.376;2023-12-20T07:10:41;6.40;;;2.80;;
79124;SDS011;68527;39.470;-0.376;2023-12-20T07:13:09;4.70;;;2.20;;
79124;SDS011;68527;39.470;-0.376;2023-12-20T07:15:34;8.40;;;2.70;;
79124;SDS011;68527;39.470;-0.376;2023-12-20T07:18:02;6.30;;;2.60;;
79124;SDS011;68527;39.470;-0.376;2023-12-20T07:20:27;6.20;;;2.60;;
79124;SDS011;68527;39.470;-0.376;2023-12-20T07:22:54;11.50;;;2.80;;
79124;SDS011;68527;39.470;-0.376;2023-12-20T07:25:20;6.10;;;2.90;;
79124;SDS011;68527;39.470;-0.376;2023-12-20T07:27:45;7.60;;;2.70;;
79124;SDS011;68527;39.470;-0.376;2023-12-20T07:30:11;6.50;;;2.90;;
79124;SDS011;68527;39.470;-0.376;2023-12-20T07:32:39;12.90;;;3.00;;
79124;SDS011;68527;39.470;-0.376;2023-12-20T07:35:05;6.60;;;3.00;;
79124;SDS011;68527;39.470;-0.376;2023-12-20T07:37:31;7.20;;;2.50;;
79124;SDS011;68527;39.470;-0.376;2023-12-20T07:42:24;6.50;;;2.50;;
79124;SDS011;68527;39.470;-0.376;2023-12-20T07:44:49;6.70;;;2.20;;
79124;SDS011;68527;39.470;-0.376;2023-12-20T07:47:15;8.40;;;2.40;;
79124;SDS011;68527;39.470;-0.376;2023-12-20T07:49:45;5.70;;;2.60;;
79124;SDS011;68527;39.470;-0.376;2023-12-20T07:52:11;6.30;;;2.40;;
79124;SDS011;68527;39.470;-0.376;2023-12-20T07:54:36;7.60;;;2.70;;
79124;SDS011;68527;39.470;-0.376;2023-12-20T07:57:02;8.00;;;2.70;;
79124;SDS011;68527;39.470;-0.376;2023-12-20T07:59:27;6.10;;;2.50;;
79124;SDS011;68527;39.470;-0.376;2023-12-20T08:04:20;5.00;;;2.10;;
79124;SDS011;68527;39.470;-0.376;2023-12-20T08:06:46;7.50;;;2.30;;
79124;SDS011;68527;39.470;-0.376;2023-12-20T08:09:11;5.90;;;2.20;;
79124;SDS011;68527;39.470;-0.376;2023-12-20T08:11:38;8.70;;;2.60;;
79124;SDS011;68527;39.470;-0.376;2023-12-20T08:14:04;5.30;;;2.30;;
79124;SDS011;68527;39.470;-0.376;2023-12-20T08:16:29;4.20;;;2.20;;
79124;SDS011;68527;39.470;-0.376;2023-12-20T08:18:55;6.00;;;2.40;;
79124;SDS011;68527;39.470;-0.376;2023-12-20T08:21:23;6.20;;;2.50;;
79124;SDS011;68527;39.470;-0.376;2023-12-20T08:23:48;5.00;;;2.70;;
79124;SDS011;68527;39.470;-0.376;2023-12-20T08:26:14;5.60;;;2.40;;
79124;SDS011;68527;39.470;-0.376;2023-12-20T08:28:46;7.40;;;2.30;;
79124;SDS011;68527;39.470;-0.376;2023-12-20T08:31:15;7.20;;;2.40;;
79124;SDS011;68527;39.470;-0.376;2023-12-20T08:33:43;6.10;;;2.70;;
79124;SDS011;68527;39.470;-0.376;2023-12-20T08:36:13;4.80;;;2.20;;
79124;SDS011;68527;39.470;-0.376;2023-12-20T08:38:39;5.20;;;2.20;;
79124;SDS011;68527;39.470;-0.376;2023-12-20T08:41:05;4.60;;;1.90;;
79124;SDS011;68527;39.470;-0.376;2023-12-20T08:43:31;6.00;;;2.20;;
79124;SDS011;68527;39.470;-0.376;2023-12-20T08:45:58;11.60;;;2.60;;
79124;SDS011;68527;39.470;-0.376;2023-12-20T08:48:24;4.90;;;2.30;;
79124;SDS011;68527;39.470;-0.376;2023-12-20T08:50:49;5.10;;;2.40;;
79124;SDS011;68527;39.470;-0.376;2023-12-20T08:53:16;7.00;;;2.50;;
79124;SDS011;68527;39.470;-0.376;2023-12-20T08:55:44;6.30;;;2.60;;
79124;SDS011;68527;39.470;-0.376;2023-12-20T08:58:10;7.50;;;2.40;;
79124;SDS011;68527;39.470;-0.376;2023-12-20T09:00:36;5.00;;;2.30;;
79124;SDS011;68527;39.470;-0.376;2023-12-20T09:03:02;5.10;;;2.40;;
79124;SDS011;68527;39.470;-0.376;2023-12-20T09:05:29;6.40;;;2.30;;
79124;SDS011;68527;39.470;-0.376;2023-12-20T09:07:55;5.00;;;2.10;;
79124;SDS011;68527;39.470;-0.376;2023-12-20T09:10:20;5.10;;;2.40;;
79124;SDS011;68527;39.470;-0.376;2023-12-20T09:12:50;4.50;;;2.00;;
79124;SDS011;68527;39.470;-0.376;2023-12-20T09:17:46;5.30;;;2.10;;
79124;SDS011;68527;39.470;-0.376;2023-12-20T09:20:11;5.20;;;2.70;;
79124;SDS011;68527;39.470;-0.376;2023-12-20T09:22:38;6.00;;;2.30;;
79124;SDS011;68527;39.470;-0.376;2023-12-20T09:25:06;6.20;;;2.60;;
79124;SDS011;68527;39.470;-0.376;2023-12-20T09:27:32;5.00;;;2.30;;
79124;SDS011;68527;39.470;-0.376;2023-12-20T09:29:57;5.20;;;2.20;;
79124;SDS011;68527;39.470;-0.376;2023-12-20T09:32:23;5.80;;;2.10;;
79124;SDS011;68527;39.470;-0.376;2023-12-20T09:34:50;4.50;;;2.50;;
79124;SDS011;68527;39.470;-0.376;2023-12-20T09:37:18;5.80;;;2.50;;
79124;SDS011;68527;39.470;-0.376;2023-12-20T09:39:43;5.40;;;2.30;;
79124;SDS011;68527;39.470;-0.376;2023-12-20T09:42:11;7.00;;;2.30;;
79124;SDS011;68527;39.470;-0.376;2023-12-20T09:44:37;4.60;;;2.10;;
79124;SDS011;68527;39.470;-0.376;2023-12-20T09:47:06;5.30;;;1.90;;
79124;SDS011;68527;39.470;-0.376;2023-12-20T09:49:33;5.90;;;2.20;;
79124;SDS011;68527;39.470;-0.376;2023-12-20T09:51:58;5.80;;;2.20;;
79124;SDS011;68527;39.470;-0.376;2023-12-20T09:54:25;4.90;;;2.60;;
79124;SDS011;68527;39.470;-0.376;2023-12-20T09:56:52;4.80;;;2.50;;
79124;SDS011;68527;39.470;-0.376;2023-12-20T09:59:19;5.10;;;2.50;;
79124;SDS011;68527;39.470;-0.376;2023-12-20T10:01:45;5.60;;;2.20;;
79124;SDS011;68527;39.470;-0.376;2023-12-20T10:04:12;4.90;;;2.20;;
79124;SDS011;68527;39.470;-0.376;2023-12-20T10:06:41;3.70;;;2.00;;
79124;SDS011;68527;39.470;-0.376;2023-12-20T10:09:07;4.10;;;2.20;;
79124;SDS011;68527;39.470;-0.376;2023-12-20T10:11:36;5.30;;;2.00;;
79124;SDS011;68527;39.470;-0.376;2023-12-20T10:14:04;7.10;;;2.10;;
79124;SDS011;68527;39.470;-0.376;2023-12-20T10:16:31;5.40;;;2.00;;
79124;SDS011;68527;39.470;-0.376;2023-12-20T10:18:57;3.30;;;1.90;;
79124;SDS011;68527;39.470;-0.376;2023-12-20T10:21:26;3.30;;;2.00;;
79124;SDS011;68527;39.470;-0.376;2023-12-20T10:23:53;3.50;;;1.80;;
79124;SDS011;68527;39.470;-0.376;2023-12-20T10:28:51;5.10;;;2.20;;
79124;SDS011;68527;39.470;-0.376;2023-12-20T10:31:30;4.20;;;2.00;;
79124;SDS011;68527;39.470;-0.376;2023-12-20T10:34:00;4.40;;;2.20;;
79124;SDS011;68527;39.470;-0.376;2023-12-20T10:36:27;4.30;;;2.10;;
79124;SDS011;68527;39.470;-0.376;2023-12-20T10:38:55;4.80;;;2.00;;
79124;SDS011;68527;39.470;-0.376;2023-12-20T10:41:32;4.40;;;2.20;;
79124;SDS011;68527;39.470;-0.376;2023-12-20T10:44:02;6.30;;;2.10;;
79124;SDS011;68527;39.470;-0.376;2023-12-20T10:46:28;4.80;;;1.80;;
79124;SDS011;68527;39.470;-0.376;2023-12-20T10:48:55;5.70;;;2.30;;
79124;SDS011;68527;39.470;-0.376;2023-12-20T10:51:23;6.00;;;2.10;;
79124;SDS011;68527;39.470;-0.376;2023-12-20T10:53:52;3.30;;;1.80;;
79124;SDS011;68527;39.470;-0.376;2023-12-20T10:56:18;3.20;;;2.00;;
79124;SDS011;68527;39.470;-0.376;2023-12-20T10:58:45;3.10;;;1.90;;
79124;SDS011;68527;39.470;-0.376;2023-12-20T11:01:13;4.80;;;2.40;;
79124;SDS011;68527;39.470;-0.376;2023-12-20T11:03:42;3.90;;;2.00;;
79124;SDS011;68527;39.470;-0.376;2023-12-20T11:09:23;3.90;;;2.00;;
79124;SDS011;68527;39.470;-0.376;2023-12-20T11:12:01;3.00;;;1.90;;
79124;SDS011;68527;39.470;-0.376;2023-12-20T11:17:10;5.00;;;2.20;;
79124;SDS011;68527;39.470;-0.376;2023-12-20T11:22:30;3.40;;;1.90;;
79124;SDS011;68527;39.470;-0.376;2023-12-20T11:25:03;4.80;;;2.30;;
79124;SDS011;68527;39.470;-0.376;2023-12-20T11:27:40;4.80;;;2.30;;
79124;SDS011;68527;39.470;-0.376;2023-12-20T11:30:08;4.80;;;2.20;;
79124;SDS011;68527;39.470;-0.376;2023-12-20T11:32:36;4.10;;;1.90;;
79124;SDS011;68527;39.470;-0.376;2023-12-20T11:37:35;3.90;;;2.00;;
79124;SDS011;68527;39.470;-0.376;2023-12-20T11:42:32;5.00;;;2.20;;
79124;SDS011;68527;39.470;-0.376;2023-12-20T11:45:10;3.70;;;2.20;;
79124;SDS011;68527;39.470;-0.376;2023-12-20T11:47:36;5.40;;;2.30;;
79124;SDS011;68527;39.470;-0.376;2023-12-20T11:50:05;4.00;;;1.90;;
79124;SDS011;68527;39.470;-0.376;2023-12-20T11:52:31;4.80;;;2.70;;
79124;SDS011;68527;39.470;-0.376;2023-12-20T11:54:57;3.90;;;2.30;;
79124;SDS011;68527;39.470;-0.376;2023-12-20T11:57:22;4.30;;;2.20;;
79124;SDS011;68527;39.470;-0.376;2023-12-20T11:59:49;4.60;;;2.30;;
79124;SDS011;68527;39.470;-0.376;2023-12-20T12:02:15;5.70;;;2.70;;
79124;SDS011;68527;39.470;-0.376;2023-12-20T12:04:43;4.80;;;2.30;;
79124;SDS011;68527;39.470;-0.376;2023-12-20T12:07:09;3.90;;;2.10;;
79124;SDS011;68527;39.470;-0.376;2023-12-20T12:09:36;4.00;;;2.20;;
79124;SDS011;68527;39.470;-0.376;2023-12-20T12:12:01;6.80;;;2.60;;
79124;SDS011;68527;39.470;-0.376;2023-12-20T12:14:28;3.80;;;2.40;;
79124;SDS011;68527;39.470;-0.376;2023-12-20T12:19:23;4.70;;;2.10;;
79124;SDS011;68527;39.470;-0.376;2023-12-20T12:21:49;3.50;;;1.90;;
79124;SDS011;68527;39.470;-0.376;2023-12-20T12:24:21;4.90;;;1.90;;
79124;SDS011;68527;39.470;-0.376;2023-12-20T12:26:56;6.50;;;2.80;;
79124;SDS011;68527;39.470;-0.376;2023-12-20T12:29:24;5.00;;;2.30;;
79124;SDS011;68527;39.470;-0.376;2023-12-20T12:31:50;4.30;;;2.30;;
79124;SDS011;68527;39.470;-0.376;2023-12-20T12:34:17;3.00;;;2.00;;
79124;SDS011;68527;39.470;-0.376;2023-12-20T12:36:43;6.20;;;2.00;;
79124;SDS011;68527;39.470;-0.376;2023-12-20T12:39:14;5.20;;;2.30;;
79124;SDS011;68527;39.470;-0.376;2023-12-20T12:41:42;3.90;;;2.20;;
79124;SDS011;68527;39.470;-0.376;2023-12-20T12:44:09;5.10;;;2.40;;
79124;SDS011;68527;39.470;-0.376;2023-12-20T12:46:35;5.00;;;2.00;;
79124;SDS011;68527;39.470;-0.376;2023-12-20T12:49:01;5.90;;;2.50;;
79124;SDS011;68527;39.470;-0.376;2023-12-20T12:51:26;4.80;;;2.20;;
79124;SDS011;68527;39.470;-0.376;2023-12-20T12:53:53;4.60;;;2.10;;
79124;SDS011;68527;39.470;-0.376;2023-12-20T12:56:18;4.20;;;2.10;;
79124;SDS011;68527;39.470;-0.376;2023-12-20T12:58:44;2.80;;;1.80;;
79124;SDS011;68527;39.470;-0.376;2023-12-20T13:01:10;4.50;;;2.10;;
79124;SDS011;68527;39.470;-0.376;2023-12-20T13:03:37;3.90;;;2.00;;
79124;SDS011;68527;39.470;-0.376;2023-12-20T13:06:03;5.40;;;2.40;;
79124;SDS011;68527;39.470;-0.376;2023-12-20T13:08:31;5.30;;;2.00;;
79124;SDS011;68527;39.470;-0.376;2023-12-20T13:10:57;3.70;;;1.90;;
79124;SDS011;68527;39.470;-0.376;2023-12-20T13:13:26;6.30;;;2.10;;
79124;SDS011;68527;39.470;-0.376;2023-12-20T13:15:52;2.80;;;1.60;;
79124;SDS011;68527;39.470;-0.376;2023-12-20T13:18:22;4.40;;;2.10;;
79124;SDS011;68527;39.470;-0.376;2023-12-20T13:20:48;6.10;;;2.10;;
79124;SDS011;68527;39.470;-0.376;2023-12-20T13:23:14;4.20;;;2.20;;
79124;SDS011;68527;39.470;-0.376;2023-12-20T13:25:40;3.20;;;2.00;;
79124;SDS011;68527;39.470;-0.376;2023-12-20T13:28:07;6.50;;;2.00;;
79124;SDS011;68527;39.470;-0.376;2023-12-20T13:30:33;3.40;;;2.00;;
79124;SDS011;68527;39.470;-0.376;2023-12-20T13:32:59;3.90;;;1.90;;
79124;SDS011;68527;39.470;-0.376;2023-12-20T13:37:51;3.90;;;1.80;;
79124;SDS011;68527;39.470;-0.376;2023-12-20T13:40:17;3.10;;;1.80;;
79124;SDS011;68527;39.470;-0.376;2023-12-20T13:42:43;3.30;;;1.80;;
79124;SDS011;68527;39.470;-0.376;2023-12-20T13:45:10;3.90;;;2.10;;
79124;SDS011;68527;39.470;-0.376;2023-12-20T13:47:37;2.90;;;1.60;;
79124;SDS011;68527;39.470;-0.376;2023-12-20T13:50:03;5.90;;;1.90;;
79124;SDS011;68527;39.470;-0.376;2023-12-20T13:52:30;3.60;;;1.70;;
79124;SDS011;68527;39.470;-0.376;2023-12-20T13:54:58;3.60;;;2.00;;
79124;SDS011;68527;39.470;-0.376;2023-12-20T13:57:23;3.70;;;1.70;;
79124;SDS011;68527;39.470;-0.376;2023-12-20T13:59:49;3.80;;;1.80;;
79124;SDS011;68527;39.470;-0.376;2023-12-20T14:02:15;4.20;;;2.10;;
79124;SDS011;68527;39.470;-0.376;2023-12-20T14:04:42;4.30;;;1.90;;
79124;SDS011;68527;39.470;-0.376;2023-12-20T14:07:08;2.70;;;1.50;;
79124;SDS011;68527;39.470;-0.376;2023-12-20T14:09:35;3.20;;;1.50;;
79124;SDS011;68527;39.470;-0.376;2023-12-20T14:14:27;2.80;;;1.50;;
79124;SDS011;68527;39.470;-0.376;2023-12-20T14:16:53;2.80;;;1.50;;
79124;SDS011;68527;39.470;-0.376;2023-12-20T14:19:18;2.60;;;1.50;;
79124;SDS011;68527;39.470;-0.376;2023-12-20T14:21:44;3.60;;;2.10;;
79124;SDS011;68527;39.470;-0.376;2023-12-20T14:24:15;3.90;;;1.80;;
79124;SDS011;68527;39.470;-0.376;2023-12-20T14:26:41;2.90;;;1.40;;
79124;SDS011;68527;39.470;-0.376;2023-12-20T14:29:07;3.30;;;1.80;;
79124;SDS011;68527;39.470;-0.376;2023-12-20T14:31:34;2.40;;;1.70;;
79124;SDS011;68527;39.470;-0.376;2023-12-20T14:33:59;3.60;;;1.60;;
79124;SDS011;68527;39.470;-0.376;2023-12-20T14:36:29;3.30;;;1.60;;
79124;SDS011;68527;39.470;-0.376;2023-12-20T14:38:57;3.00;;;1.60;;
79124;SDS011;68527;39.470;-0.376;2023-12-20T14:41:22;3.10;;;1.80;;
79124;SDS011;68527;39.470;-0.376;2023-12-20T14:43:50;2.90;;;1.60;;
79124;SDS011;68527;39.470;-0.376;2023-12-20T14:46:18;2.60;;;1.70;;
79124;SDS011;68527;39.470;-0.376;2023-12-20T14:48:44;3.10;;;1.60;;
79124;SDS011;68527;39.470;-0.376;2023-12-20T14:51:09;2.50;;;1.40;;
79124;SDS011;68527;39.470;-0.376;2023-12-20T14:53:37;3.20;;;1.40;;
79124;SDS011;68527;39.470;-0.376;2023-12-20T14:56:04;3.40;;;1.50;;
79124;SDS011;68527;39.470;-0.376;2023-12-20T14:58:30;2.50;;;1.40;;
79124;SDS011;68527;39.470;-0.376;2023-12-20T15:00:57;2.80;;;1.60;;
79124;SDS011;68527;39.470;-0.376;2023-12-20T15:03:25;2.80;;;1.40;;
79124;SDS011;68527;39.470;-0.376;2023-12-20T15:05:51;2.90;;;1.50;;
79124;SDS011;68527;39.470;-0.376;2023-12-20T15:08:16;3.20;;;1.40;;
79124;SDS011;68527;39.470;-0.376;2023-12-20T15:10:42;3.00;;;1.60;;
79124;SDS011;68527;39.470;-0.376;2023-12-20T15:13:10;2.40;;;1.70;;
79124;SDS011;68527;39.470;-0.376;2023-12-20T15:15:36;3.50;;;1.60;;